CheckWX is a tool to help pilots better visualize weather data.  It is not intended as a substitute for an official pre-flight weather briefing.

08:03:11 UTC

EDVE METAR
Braunschweig Wolfsburg Airport
Germany
Current

13 mins ago

EDVE 210750Z VRB03KT 3600 -DZ BR OVC003 04/04 Q1012
Observed
Nov-21 @ 07:50 UTC
Wind
  • Variable at 3 KTS
Visibility
3,600 meters
Flight Rules
LIFR
Conditions
Light Drizzle, Mist
Cloud Levels
  • Overcast at 300' AGL
Temperature
C / 39°F
Dewpoint
C / 39°F
Humidity
100%
Altimeter
29.88" Hg
Pressure
1011.92 hPa
Previous

43 mins ago

EDVE 210720Z VRB02KT 4000 -DZ BR OVC003 04/03 Q1012
Observed
Nov-21 @ 07:20 UTC
Wind
  • Variable at 2 KTS
Visibility
4,000 meters
Flight Rules
LIFR
Conditions
Light Drizzle, Mist
Cloud Levels
  • Overcast at 300' AGL
Temperature
C / 39°F
Dewpoint
C / 37°F
Humidity
93%
Altimeter
29.88" Hg
Pressure
1011.92 hPa
Previous

1 hour ago

EDVE 210650Z VRB01KT 3100 -DZ BR OVC002 04/03 Q1012
Observed
Nov-21 @ 06:50 UTC
Wind
  • Variable at 1 KTS
Visibility
3,100 meters
Flight Rules
LIFR
Conditions
Light Drizzle, Mist
Cloud Levels
  • Overcast at 200' AGL
Temperature
C / 39°F
Dewpoint
C / 37°F
Humidity
93%
Altimeter
29.88" Hg
Pressure
1011.92 hPa